Time;durP1;ratioP1;P1;durP2;ratioP2;P2;SDS_P1;SDS_P2;PMS_P1;PMS_P2;Temp;Humidity;BMP_temperature;BMP_pressure;BME280_temperature;BME280_humidity;BME280_pressure;Samples;Min_cycle;Max_cycle;Signal;HPM_P1;HPM_P2
2022/06/28 00:00:19;;;;;;;5.57;1.60;;;18.90;99.90;;;;;;5073562;28;20332;-60
2022/06/28 00:02:47;;;;;;;5.82;1.77;;;18.80;99.90;;;;;;5073573;28;20663;-60
2022/06/28 00:05:14;;;;;;;5.78;1.70;;;18.70;99.90;;;;;;5073435;28;20208;-59
2022/06/28 00:07:41;;;;;;;4.53;1.70;;;18.60;99.90;;;;;;5072794;28;20228;-59
2022/06/28 00:10:10;;;;;;;2.90;1.63;;;18.60;99.90;;;;;;5073355;28;20208;-59
2022/06/28 00:12:39;;;;;;;1.60;1.50;;;18.50;99.90;;;;;;5073444;28;20211;-59
2022/06/28 00:17:53;;;;;;;1.70;1.60;;;18.30;99.90;;;;;;5073317;28;20232;-60
2022/06/28 00:20:20;;;;;;;2.40;1.50;;;18.20;99.90;;;;;;5073227;28;20726;-60
2022/06/28 00:22:47;;;;;;;1.60;1.50;;;18.20;99.90;;;;;;5073144;28;20231;-59
2022/06/28 00:25:13;;;;;;;2.63;1.63;;;18.20;99.90;;;;;;5073452;28;20205;-60
2022/06/28 00:27:42;;;;;;;4.07;1.60;;;18.10;99.90;;;;;;5072848;28;20228;-59
2022/06/28 00:30:10;;;;;;;2.83;1.45;;;18.10;99.90;;;;;;5073014;28;20227;-60
2022/06/28 00:32:37;;;;;;;6.68;1.90;;;18.10;99.90;;;;;;5072891;28;20239;-60
2022/06/28 00:35:05;;;;;;;3.30;1.63;;;18.10;99.90;;;;;;5073056;28;20575;-60
2022/06/28 00:37:32;;;;;;;2.40;1.70;;;18.10;99.90;;;;;;5072781;28;20232;-59
2022/06/28 00:39:58;;;;;;;2.72;1.65;;;18.10;99.90;;;;;;5072638;28;20320;-60
2022/06/28 00:42:25;;;;;;;3.72;1.80;;;18.20;99.90;;;;;;5072987;28;20219;-59
2022/06/28 00:44:54;;;;;;;2.53;1.65;;;18.20;99.90;;;;;;5072931;28;20204;-60
2022/06/28 00:47:20;;;;;;;1.70;1.60;;;18.30;99.90;;;;;;5072366;28;20777;-60
2022/06/28 00:49:47;;;;;;;1.73;1.50;;;18.30;99.90;;;;;;5072618;28;20201;-59
2022/06/28 00:52:15;;;;;;;3.67;1.75;;;18.20;99.90;;;;;;5072172;28;20204;-60
2022/06/28 00:54:41;;;;;;;2.30;1.75;;;18.30;99.90;;;;;;5074802;28;20208;-60
2022/06/28 00:57:09;;;;;;;5.53;1.80;;;18.20;99.90;;;;;;5076283;28;20250;-60
2022/06/28 00:59:35;;;;;;;3.50;1.80;;;18.20;99.90;;;;;;5075940;28;20220;-60
2022/06/28 01:02:04;;;;;;;3.30;1.95;;;18.10;99.90;;;;;;5075688;28;20749;-59
2022/06/28 01:04:31;;;;;;;5.15;1.95;;;18.10;99.90;;;;;;5076037;28;20694;-59
2022/06/28 01:06:58;;;;;;;5.20;1.55;;;18.10;99.90;;;;;;5076204;28;20224;-59
2022/06/28 01:09:25;;;;;;;4.80;1.75;;;18.00;99.90;;;;;;5076540;28;20209;-59
2022/06/28 01:11:52;;;;;;;8.18;1.75;;;17.90;99.90;;;;;;5075653;28;20209;-59
2022/06/28 01:14:19;;;;;;;4.55;1.98;;;18.00;99.90;;;;;;5075673;28;20212;-59
2022/06/28 01:16:47;;;;;;;7.93;1.83;;;18.00;99.90;;;;;;5076059;28;20323;-59
2022/06/28 01:19:17;;;;;;;2.20;2.00;;;18.00;99.90;;;;;;5075925;28;20225;-58
2022/06/28 01:21:47;;;;;;;3.40;1.75;;;18.00;99.90;;;;;;5075747;28;20231;-58
2022/06/28 01:24:16;;;;;;;4.05;1.75;;;18.00;99.90;;;;;;5075671;28;20635;-58
2022/06/28 01:26:45;;;;;;;9.77;2.10;;;18.00;99.90;;;;;;5075698;28;20417;-58
2022/06/28 01:29:12;;;;;;;4.88;1.98;;;18.00;99.90;;;;;;5076100;28;20197;-59
2022/06/28 01:31:39;;;;;;;3.88;1.88;;;18.00;99.90;;;;;;5076185;28;20205;-58
2022/06/28 01:34:06;;;;;;;4.70;1.90;;;17.90;99.90;;;;;;5075873;28;20240;-59
2022/06/28 01:36:33;;;;;;;2.67;1.90;;;17.90;99.90;;;;;;5075917;28;20229;-59
2022/06/28 01:39:00;;;;;;;4.03;2.50;;;17.90;99.90;;;;;;5076193;28;20704;-58
2022/06/28 01:41:34;;;;;;;3.63;2.47;;;17.90;99.90;;;;;;5077360;28;20216;-58
2022/06/28 01:44:04;;;;;;;5.88;2.40;;;17.90;99.90;;;;;;5078637;28;20208;-58
2022/06/28 01:46:31;;;;;;;2.65;1.95;;;17.90;99.90;;;;;;5077761;28;20236;-58
2022/06/28 01:48:58;;;;;;;4.78;1.92;;;18.00;99.90;;;;;;5077371;28;20219;-58
2022/06/28 01:51:25;;;;;;;3.95;1.98;;;18.00;99.90;;;;;;5076584;28;20200;-59
2022/06/28 01:53:52;;;;;;;2.97;2.13;;;18.00;99.90;;;;;;5076035;28;20617;-58
2022/06/28 01:56:19;;;;;;;2.35;1.70;;;18.00;99.90;;;;;;5075690;28;20607;-58
2022/06/28 01:58:47;;;;;;;4.90;1.88;;;17.90;99.90;;;;;;5075286;28;20296;-58
2022/06/28 02:01:14;;;;;;;5.93;1.65;;;17.90;99.90;;;;;;5075533;28;20577;-58
2022/06/28 02:03:41;;;;;;;4.32;1.70;;;17.80;99.90;;;;;;5075332;28;20212;-58
2022/06/28 02:06:08;;;;;;;3.90;1.67;;;17.80;99.90;;;;;;5074306;28;20233;-59
2022/06/28 02:08:35;;;;;;;6.65;1.73;;;17.70;99.90;;;;;;5075326;28;20314;-58
2022/06/28 02:11:04;;;;;;;5.28;1.80;;;17.70;99.90;;;;;;5075188;28;20201;-59
2022/06/28 02:13:30;;;;;;;3.45;1.70;;;17.70;99.90;;;;;;5075279;28;20213;-59
2022/06/28 02:15:59;;;;;;;2.65;1.70;;;17.60;99.90;;;;;;5075294;28;20223;-58
2022/06/28 02:18:25;;;;;;;4.70;2.03;;;17.60;99.90;;;;;;5075510;28;20205;-59
2022/06/28 02:20:52;;;;;;;2.13;1.80;;;17.60;99.90;;;;;;5075266;28;20294;-60
2022/06/28 02:23:19;;;;;;;2.15;1.75;;;17.50;99.90;;;;;;5075770;28;20201;-59
2022/06/28 02:25:46;;;;;;;3.60;1.80;;;17.50;99.90;;;;;;5075313;28;20209;-59
2022/06/28 02:28:13;;;;;;;3.20;1.80;;;17.40;99.90;;;;;;5075079;28;20694;-62
2022/06/28 02:30:39;;;;;;;3.33;1.90;;;17.40;99.90;;;;;;5075258;28;20216;-59
2022/06/28 02:33:08;;;;;;;4.75;1.80;;;17.40;99.90;;;;;;5074804;28;20204;-59
2022/06/28 02:41:03;;;;;;;3.58;2.00;;;17.30;99.90;;;;;;5074267;28;20254;-60
2022/06/28 02:43:29;;;;;;;3.75;1.63;;;17.20;99.90;;;;;;5074685;28;20212;-59
2022/06/28 02:45:56;;;;;;;5.03;2.30;;;17.20;99.90;;;;;;5074329;28;20215;-59
2022/06/28 02:48:24;;;;;;;2.42;1.60;;;17.20;99.90;;;;;;5074552;28;20209;-59
2022/06/28 02:50:51;;;;;;;3.42;1.88;;;17.20;99.90;;;;;;5074156;28;20227;-60
2022/06/28 02:53:18;;;;;;;3.17;1.90;;;17.20;99.90;;;;;;5073993;28;20209;-59
2022/06/28 02:55:44;;;;;;;2.15;1.63;;;17.20;99.90;;;;;;5073591;28;20204;-58
2022/06/28 02:58:11;;;;;;;7.88;1.98;;;17.30;99.90;;;;;;5073644;28;20205;-60
2022/06/28 03:00:38;;;;;;;4.03;1.90;;;17.30;99.90;;;;;;5073390;28;20233;-59
2022/06/28 03:03:05;;;;;;;3.00;1.98;;;17.40;99.90;;;;;;5073790;28;20212;-59
2022/06/28 03:05:35;;;;;;;3.92;2.03;;;17.50;99.90;;;;;;5073815;28;20200;-60
2022/06/28 03:08:02;;;;;;;2.17;1.98;;;17.60;99.90;;;;;;5074142;28;20259;-59
2022/06/28 03:10:28;;;;;;;4.25;1.95;;;17.60;99.90;;;;;;5073865;28;20208;-59
2022/06/28 03:12:55;;;;;;;2.42;2.00;;;17.60;99.90;;;;;;5074030;28;20209;-59
2022/06/28 03:15:22;;;;;;;2.70;2.10;;;17.40;99.90;;;;;;5074090;28;20295;-60
2022/06/28 03:17:49;;;;;;;5.68;2.15;;;17.20;99.90;;;;;;5074061;28;20233;-59
2022/06/28 03:20:16;;;;;;;2.30;2.10;;;17.10;99.90;;;;;;5074788;28;20323;-60
2022/06/28 03:22:44;;;;;;;5.05;2.20;;;17.00;99.90;;;;;;5074744;28;20207;-59
2022/06/28 03:25:11;;;;;;;3.72;2.08;;;17.00;99.90;;;;;;5075095;28;20209;-59
2022/06/28 03:27:38;;;;;;;2.90;1.88;;;16.90;99.90;;;;;;5074741;28;20918;-59
2022/06/28 03:30:06;;;;;;;3.67;2.20;;;16.90;99.90;;;;;;5074636;28;20207;-60
2022/06/28 03:32:33;;;;;;;2.42;2.22;;;16.90;99.90;;;;;;5074153;28;20624;-60
2022/06/28 03:35:00;;;;;;;4.57;1.97;;;16.90;99.90;;;;;;5074870;28;20205;-59
2022/06/28 03:37:27;;;;;;;4.53;2.60;;;16.90;99.90;;;;;;5074493;28;20225;-59
2022/06/28 03:39:55;;;;;;;4.90;2.40;;;16.90;99.90;;;;;;5074917;28;20231;-59
2022/06/28 03:42:22;;;;;;;3.10;2.20;;;17.00;99.90;;;;;;5074976;28;20205;-59
2022/06/28 03:44:48;;;;;;;5.93;2.60;;;17.00;99.90;;;;;;5074425;28;20239;-60
2022/06/28 03:47:15;;;;;;;4.80;2.70;;;17.10;99.90;;;;;;5073741;28;20754;-59
2022/06/28 03:49:42;;;;;;;3.38;2.97;;;17.20;99.90;;;;;;5074086;28;20585;-59
2022/06/28 03:52:09;;;;;;;3.55;1.80;;;17.30;99.90;;;;;;5074657;28;20680;-58
2022/06/28 03:54:35;;;;;;;7.72;4.50;;;17.40;99.90;;;;;;5074520;28;20209;-58
2022/06/28 03:57:04;;;;;;;6.57;2.92;;;17.50;99.90;;;;;;5073963;28;20224;-58
2022/06/28 03:59:31;;;;;;;4.07;1.90;;;17.60;99.90;;;;;;5073302;28;20211;-58
2022/06/28 04:01:58;;;;;;;3.75;2.22;;;17.70;99.90;;;;;;5073674;28;20299;-60
2022/06/28 04:04:25;;;;;;;5.97;2.33;;;17.70;99.90;;;;;;5073321;28;20304;-58
2022/06/28 04:06:52;;;;;;;3.00;2.30;;;17.80;99.90;;;;;;5073665;28;20227;-58
2022/06/28 04:09:18;;;;;;;4.28;2.20;;;17.80;99.90;;;;;;5073613;28;20236;-58
2022/06/28 04:11:45;;;;;;;2.33;2.13;;;17.90;99.90;;;;;;5073743;28;20208;-58
2022/06/28 04:14:14;;;;;;;2.80;2.60;;;17.90;99.90;;;;;;5073862;28;20220;-58
2022/06/28 04:16:42;;;;;;;3.85;2.28;;;17.80;99.90;;;;;;5073014;28;20241;-58
2022/06/28 04:19:08;;;;;;;2.30;2.10;;;17.70;99.90;;;;;;5073402;28;20208;-58
2022/06/28 04:21:36;;;;;;;2.10;1.92;;;17.60;99.90;;;;;;5072285;28;20228;-59
2022/06/28 04:24:02;;;;;;;3.35;2.28;;;17.70;99.90;;;;;;5072841;28;20287;-58
2022/06/28 04:26:29;;;;;;;2.95;2.45;;;17.80;99.90;;;;;;5073033;28;20220;-58
2022/06/28 04:28:56;;;;;;;5.60;2.30;;;17.90;99.90;;;;;;5072176;28;20201;-58
2022/06/28 04:31:24;;;;;;;3.22;2.30;;;18.00;99.90;;;;;;5073040;28;20207;-61
2022/06/28 04:33:51;;;;;;;2.10;1.90;;;18.10;99.90;;;;;;5072847;28;20207;-58
2022/06/28 04:36:18;;;;;;;2.40;2.10;;;18.20;99.90;;;;;;5072656;28;20232;-59
2022/06/28 04:38:44;;;;;;;3.45;2.10;;;18.20;99.90;;;;;;5072861;28;20684;-58
2022/06/28 04:41:11;;;;;;;2.60;2.00;;;18.20;99.90;;;;;;5072792;28;20735;-59
2022/06/28 04:43:38;;;;;;;2.70;1.90;;;18.30;99.90;;;;;;5072707;28;20209;-59
2022/06/28 04:46:05;;;;;;;3.30;2.03;;;18.30;99.90;;;;;;5072823;28;20288;-59
2022/06/28 04:48:33;;;;;;;4.30;1.80;;;18.40;99.90;;;;;;5073316;28;20315;-59
2022/06/28 04:51:10;;;;;;;4.75;2.20;;;18.40;99.90;;;;;;5072297;28;20264;-59
2022/06/28 04:53:38;;;;;;;2.28;2.08;;;18.40;99.90;;;;;;5072796;28;20208;-60
2022/06/28 04:56:05;;;;;;;4.53;1.92;;;18.50;99.90;;;;;;5072628;28;20204;-59
2022/06/28 04:58:32;;;;;;;3.38;2.05;;;18.50;99.90;;;;;;5072642;28;20211;-60
2022/06/28 05:00:59;;;;;;;2.80;1.75;;;18.60;99.90;;;;;;5072326;28;20231;-59
2022/06/28 05:03:26;;;;;;;2.58;1.95;;;18.70;99.90;;;;;;5072677;28;20201;-59
2022/06/28 05:05:54;;;;;;;3.30;2.45;;;18.80;99.90;;;;;;5072649;28;20656;-60
2022/06/28 05:08:21;;;;;;;2.42;2.20;;;18.90;99.90;;;;;;5073201;28;20201;-59
2022/06/28 05:10:48;;;;;;;3.97;2.28;;;19.00;99.90;;;;;;5072490;28;20296;-59
2022/06/28 05:13:15;;;;;;;2.50;2.20;;;19.10;99.90;;;;;;5072509;28;20695;-59
2022/06/28 05:15:41;;;;;;;3.03;2.10;;;19.10;99.90;;;;;;5072722;28;20215;-59
2022/06/28 05:18:08;;;;;;;6.53;2.78;;;19.10;99.90;;;;;;5073403;28;20232;-61
2022/06/28 05:20:35;;;;;;;5.13;2.30;;;19.00;99.90;;;;;;5072333;28;20225;-61
2022/06/28 05:23:03;;;;;;;3.45;2.10;;;19.20;99.90;;;;;;5071745;28;20201;-61
2022/06/28 05:25:31;;;;;;;4.00;2.10;;;19.40;99.90;;;;;;5072194;28;20215;-60
2022/06/28 05:27:58;;;;;;;5.43;2.00;;;19.50;99.90;;;;;;5071880;28;20225;-61
2022/06/28 05:30:24;;;;;;;7.13;2.13;;;19.50;99.90;;;;;;5071837;28;20201;-61
2022/06/28 05:32:51;;;;;;;7.68;2.53;;;19.60;99.90;;;;;;5071010;28;20596;-60
2022/06/28 05:35:18;;;;;;;6.00;3.50;;;19.90;99.90;;;;;;5071400;28;20669;-61
2022/06/28 05:37:44;;;;;;;5.78;3.47;;;20.00;99.90;;;;;;5071797;28;20225;-61
2022/06/28 05:40:13;;;;;;;5.03;3.22;;;20.20;99.90;;;;;;5073006;28;20358;-60
2022/06/28 05:42:40;;;;;;;7.78;3.88;;;20.30;99.90;;;;;;5074675;28;20556;-61
2022/06/28 05:45:08;;;;;;;5.57;3.25;;;20.30;99.90;;;;;;5075509;28;20541;-61
2022/06/28 05:47:34;;;;;;;6.30;3.42;;;20.50;99.90;;;;;;5075177;28;20226;-63
2022/06/28 05:50:01;;;;;;;3.88;3.50;;;20.90;99.90;;;;;;5075178;28;20342;-61
2022/06/28 05:52:28;;;;;;;8.32;3.50;;;21.30;99.90;;;;;;5075304;28;20231;-61
2022/06/28 05:54:54;;;;;;;4.28;3.53;;;21.60;99.90;;;;;;5074762;28;20204;-61
2022/06/28 05:57:22;;;;;;;6.97;3.20;;;21.50;99.90;;;;;;5074782;28;20603;-61
2022/06/28 05:59:49;;;;;;;3.42;3.13;;;21.50;99.90;;;;;;5075112;28;20201;-61
2022/06/28 06:02:16;;;;;;;4.53;3.17;;;21.80;99.90;;;;;;5074567;28;20229;-60
2022/06/28 06:04:43;;;;;;;3.22;2.92;;;22.50;99.90;;;;;;5075099;28;20729;-61
2022/06/28 06:07:09;;;;;;;3.88;3.08;;;22.70;99.90;;;;;;5074593;28;20576;-61
2022/06/28 06:09:36;;;;;;;3.63;2.90;;;23.20;99.90;;;;;;5074508;28;20586;-61
2022/06/28 06:12:04;;;;;;;4.35;2.85;;;24.00;99.90;;;;;;5074687;28;20205;-61
2022/06/28 06:14:32;;;;;;;4.13;2.50;;;25.10;99.90;;;;;;5074753;28;20232;-62
2022/06/28 06:16:59;;;;;;;4.82;2.85;;;26.50;99.90;;;;;;5074778;28;20656;-62
2022/06/28 06:19:25;;;;;;;4.20;2.40;;;27.10;99.90;;;;;;5074305;28;20208;-62
2022/06/28 06:21:52;;;;;;;4.72;2.70;;;27.50;99.90;;;;;;5074122;28;20232;-61
2022/06/28 06:24:20;;;;;;;3.35;2.60;;;28.90;99.90;;;;;;5074314;28;20205;-62
2022/06/28 06:26:46;;;;;;;4.03;2.50;;;30.40;99.90;;;;;;5074642;28;20251;-61
2022/06/28 06:29:13;;;;;;;6.75;2.67;;;30.00;99.90;;;;;;5075376;28;20730;-66
2022/06/28 06:31:41;;;;;;;4.28;3.05;;;28.90;99.90;;;;;;5074369;28;20196;-60
2022/06/28 06:34:08;;;;;;;5.28;2.55;;;27.70;99.90;;;;;;5074451;28;20243;-61
2022/06/28 06:36:35;;;;;;;3.45;2.70;;;27.20;99.90;;;;;;5074261;28;20224;-62
2022/06/28 06:39:02;;;;;;;3.60;2.70;;;27.10;99.90;;;;;;5074506;28;20201;-62
2022/06/28 06:41:28;;;;;;;3.83;3.40;;;27.50;99.90;;;;;;5074314;28;20228;-62
2022/06/28 06:43:55;;;;;;;3.45;3.03;;;27.80;99.90;;;;;;5073982;28;20213;-60
2022/06/28 06:46:22;;;;;;;4.63;3.47;;;27.50;99.90;;;;;;5073566;28;20227;-60
2022/06/28 06:48:50;;;;;;;4.90;3.80;;;27.10;99.90;;;;;;5074506;28;20212;-61
2022/06/28 06:51:16;;;;;;;5.72;3.35;;;26.40;99.90;;;;;;5074252;28;20201;-60
2022/06/28 06:53:43;;;;;;;3.45;2.95;;;26.00;99.90;;;;;;5074984;28;20212;-61
2022/06/28 06:56:10;;;;;;;4.47;3.60;;;25.80;99.90;;;;;;5074667;28;20233;-60
2022/06/28 06:58:37;;;;;;;3.25;2.95;;;25.30;99.90;;;;;;5074829;28;20704;-60
2022/06/28 07:01:04;;;;;;;5.63;3.20;;;25.00;99.90;;;;;;5074414;28;20221;-60
2022/06/28 07:03:31;;;;;;;2.97;2.70;;;25.40;99.90;;;;;;5074469;28;20212;-61
2022/06/28 07:05:59;;;;;;;3.10;2.83;;;26.70;99.90;;;;;;5074795;28;20289;-61
2022/06/28 07:08:26;;;;;;;3.60;2.50;;;27.40;99.90;;;;;;5075970;28;20205;-61
2022/06/28 07:10:52;;;;;;;5.07;3.05;;;27.70;99.90;;;;;;5074545;28;20200;-61
2022/06/28 07:13:19;;;;;;;3.53;2.63;;;27.80;99.90;;;;;;5073210;28;20254;-61
2022/06/28 07:15:46;;;;;;;3.03;2.70;;;27.30;99.90;;;;;;5073437;28;20216;-61
2022/06/28 07:18:13;;;;;;;2.63;2.40;;;26.80;99.90;;;;;;5072416;28;20213;-61
2022/06/28 07:20:39;;;;;;;3.05;2.75;;;26.10;99.90;;;;;;5072653;28;20236;-61
2022/06/28 07:23:07;;;;;;;4.90;2.50;;;25.40;99.90;;;;;;5072112;28;20205;-60
2022/06/28 07:25:34;;;;;;;2.65;2.45;;;24.70;99.90;;;;;;5072367;28;20228;-60
2022/06/28 07:28:01;;;;;;;3.17;2.83;;;24.20;99.90;;;;;;5072457;28;20303;-59
2022/06/28 07:30:27;;;;;;;5.35;2.90;;;23.80;99.90;;;;;;5072461;28;20208;-60
2022/06/28 07:32:54;;;;;;;4.85;3.22;;;23.40;99.90;;;;;;5072271;28;20652;-60
2022/06/28 07:35:24;;;;;;;4.90;2.83;;;23.40;99.90;;;;;;5073369;28;20211;-61
2022/06/28 07:37:51;;;;;;;3.40;2.88;;;23.40;99.90;;;;;;5073251;28;20316;-61
2022/06/28 07:40:19;;;;;;;2.38;2.17;;;23.60;99.90;;;;;;5072943;28;20208;-60
2022/06/28 07:42:46;;;;;;;3.53;2.70;;;23.70;99.90;;;;;;5073655;28;20229;-60
2022/06/28 07:45:13;;;;;;;3.50;2.50;;;23.80;99.90;;;;;;5074253;28;20209;-61
2022/06/28 07:47:40;;;;;;;3.38;2.80;;;24.00;99.90;;;;;;5072731;28;20708;-60
2022/06/28 07:52:54;;;;;;;2.35;2.10;;;23.90;99.90;;;;;;5056628;28;20191;-60
2022/06/28 07:55:22;;;;;;;3.25;2.22;;;24.00;99.90;;;;;;5071993;28;20219;-61
2022/06/28 07:57:48;;;;;;;2.42;2.08;;;24.20;99.90;;;;;;5071185;28;20773;-60
2022/06/28 08:00:19;;;;;;;4.40;2.40;;;25.00;99.90;;;;;;5071388;28;20213;-60
2022/06/28 08:02:46;;;;;;;2.28;1.95;;;26.10;99.90;;;;;;5070313;28;20221;-60
2022/06/28 08:05:13;;;;;;;3.35;2.42;;;28.10;99.90;;;;;;5070732;28;20593;-59
2022/06/28 08:07:39;;;;;;;2.60;1.75;;;29.70;99.90;;;;;;5071225;28;20278;-58
2022/06/28 08:10:08;;;;;;;2.08;1.88;;;30.80;99.90;;;;;;5071398;28;20208;-60
2022/06/28 08:12:36;;;;;;;3.17;1.75;;;31.20;99.50;;;;;;5071414;28;20205;-59
2022/06/28 08:15:04;;;;;;;2.28;2.08;;;32.40;96.00;;;;;;5070996;28;20205;-60
2022/06/28 08:17:30;;;;;;;2.20;1.98;;;33.00;93.50;;;;;;5034716;28;1035235;-60
2022/06/28 08:19:57;;;;;;;4.25;1.80;;;32.60;92.70;;;;;;5071844;28;20254;-60
2022/06/28 08:22:24;;;;;;;2.67;1.90;;;32.40;93.30;;;;;;5071544;28;20271;-60
2022/06/28 08:24:50;;;;;;;1.90;1.73;;;33.90;90.80;;;;;;5071936;28;20208;-60
2022/06/28 08:27:17;;;;;;;1.92;1.70;;;35.10;83.50;;;;;;5071631;28;20744;-60
2022/06/28 08:29:47;;;;;;;3.47;1.80;;;34.60;83.90;;;;;;5071076;28;20205;-60
2022/06/28 08:32:16;;;;;;;4.47;1.73;;;33.30;85.80;;;;;;5071211;28;20197;-59
2022/06/28 08:34:43;;;;;;;6.03;1.67;;;33.00;86.60;;;;;;5071433;28;20201;-60
2022/06/28 08:37:09;;;;;;;4.50;1.83;;;33.90;84.20;;;;;;5071425;28;20616;-60
2022/06/28 08:39:36;;;;;;;2.08;1.35;;;34.90;80.90;;;;;;5071783;28;20205;-61
2022/06/28 08:42:05;;;;;;;3.17;1.52;;;35.80;77.60;;;;;;5071120;28;20643;-61
2022/06/28 08:44:34;;;;;;;1.60;1.40;;;36.60;73.40;;;;;;5071603;28;20688;-60
2022/06/28 08:47:03;;;;;;;1.38;1.20;;;36.70;73.20;;;;;;5071505;28;20783;-61
2022/06/28 08:49:51;;;;;;;1.90;1.17;;;36.80;71.10;;;;;;5072082;28;20209;-60
2022/06/28 08:52:21;;;;;;;2.50;1.40;;;36.50;69.70;;;;;;5071381;28;20291;-61
2022/06/28 08:54:49;;;;;;;1.73;1.33;;;36.20;68.80;;;;;;5071655;28;20212;-61
2022/06/28 08:57:18;;;;;;;2.72;1.50;;;35.70;70.30;;;;;;5071602;28;20244;-61
2022/06/28 08:59:46;;;;;;;3.90;1.50;;;35.30;71.40;;;;;;5071364;28;20204;-61
2022/06/28 09:02:16;;;;;;;3.97;1.38;;;34.50;73.10;;;;;;5071342;28;20216;-60
2022/06/28 09:04:48;;;;;;;2.20;1.67;;;33.20;76.10;;;;;;5071955;28;20213;-60
2022/06/28 09:07:15;;;;;;;3.05;1.25;;;31.90;79.10;;;;;;5072272;28;20229;-61
2022/06/28 09:09:42;;;;;;;5.43;1.65;;;30.50;83.90;;;;;;5072806;28;20228;-63
2022/06/28 09:12:09;;;;;;;2.60;1.50;;;29.40;88.70;;;;;;5072344;28;20197;-61
2022/06/28 09:14:36;;;;;;;2.28;1.20;;;28.80;90.90;;;;;;5073687;28;20209;-61
2022/06/28 09:19:58;;;;;;;2.03;1.30;;;28.30;91.20;;;;;;5152672;27;20533;-60
2022/06/28 09:22:30;;;;;;;2.63;1.42;;;28.10;92.30;;;;;;5152323;27;20206;-60
2022/06/28 09:24:57;;;;;;;2.67;1.10;;;28.20;92.90;;;;;;5152796;27;20198;-59
2022/06/28 09:27:29;;;;;;;1.58;1.15;;;27.90;92.30;;;;;;5152825;27;20222;-60
2022/06/28 09:29:56;;;;;;;1.40;1.02;;;27.60;93.20;;;;;;5152431;27;20209;-60
2022/06/28 09:32:28;;;;;;;2.38;1.00;;;27.20;94.50;;;;;;5152056;27;20206;-60
2022/06/28 09:34:58;;;;;;;2.50;1.25;;;27.00;95.10;;;;;;5151545;27;20206;-60
2022/06/28 09:37:37;;;;;;;2.85;1.10;;;26.80;95.50;;;;;;5151158;27;20226;-60
2022/06/28 09:40:16;;;;;;;0.90;0.85;;;26.90;95.70;;;;;;5151371;27;20233;-60
2022/06/28 09:42:44;;;;;;;4.57;1.20;;;27.10;94.80;;;;;;5150911;27;20606;-60
2022/06/28 09:45:12;;;;;;;1.23;1.10;;;27.30;94.60;;;;;;5151369;27;20206;-60
2022/06/28 09:47:44;;;;;;;2.95;0.98;;;27.40;93.80;;;;;;5150913;27;20241;-61
2022/06/28 09:50:18;;;;;;;2.38;1.00;;;27.50;94.00;;;;;;5150854;27;20695;-60
2022/06/28 09:52:45;;;;;;;1.05;0.80;;;27.60;93.50;;;;;;5150639;27;20661;-60
2022/06/28 09:55:14;;;;;;;1.42;0.95;;;27.60;93.10;;;;;;5150656;27;20202;-60
2022/06/28 09:57:43;;;;;;;1.88;0.98;;;27.60;92.20;;;;;;5150474;27;20230;-60
2022/06/28 10:00:11;;;;;;;2.33;0.80;;;27.60;92.20;;;;;;5151149;27;20574;-60
2022/06/28 10:02:40;;;;;;;1.88;1.10;;;27.50;92.40;;;;;;5150606;27;20213;-61
2022/06/28 10:05:07;;;;;;;1.77;1.10;;;27.40;93.10;;;;;;5150648;27;20584;-60
2022/06/28 10:07:36;;;;;;;2.47;0.90;;;27.40;92.90;;;;;;5150304;27;20226;-61
2022/06/28 10:10:04;;;;;;;3.03;1.17;;;27.50;92.80;;;;;;5150640;27;20203;-60
2022/06/28 10:15:19;;;;;;;1.20;0.80;;;27.40;92.90;;;;;;5150558;27;20201;-61
2022/06/28 10:18:05;;;;;;;0.90;0.80;;;27.20;92.70;;;;;;5149451;27;20237;-60
2022/06/28 10:20:33;;;;;;;1.00;0.90;;;27.10;93.30;;;;;;5149881;27;20202;-60
2022/06/28 10:23:25;;;;;;;1.55;0.90;;;27.30;93.20;;;;;;5149974;27;20214;-60
2022/06/28 10:26:08;;;;;;;0.98;0.85;;;27.60;92.20;;;;;;5149977;27;20202;-61
2022/06/28 10:28:38;;;;;;;2.58;0.73;;;27.60;92.20;;;;;;5145977;27;20213;-58
2022/06/28 10:31:37;;;;;;;2.03;0.77;;;27.30;91.70;;;;;;5136246;27;20227;-58
2022/06/28 10:34:07;;;;;;;2.05;0.85;;;27.20;91.40;;;;;;5134810;27;20207;-58
2022/06/28 10:36:46;;;;;;;1.00;0.80;;;27.20;92.00;;;;;;5135067;27;20272;-60
2022/06/28 10:39:26;;;;;;;1.52;0.70;;;27.40;91.70;;;;;;5135104;27;20202;-59
2022/06/28 10:42:05;;;;;;;1.80;0.88;;;27.40;92.50;;;;;;5135659;27;20221;-66
2022/06/28 10:44:45;;;;;;;2.45;1.00;;;27.20;93.10;;;;;;5137429;27;20233;-62
2022/06/28 10:47:14;;;;;;;1.13;1.02;;;26.90;93.70;;;;;;5137982;27;20226;-67
2022/06/28 10:50:00;;;;;;;2.38;1.58;;;26.90;94.40;;;;;;5138301;27;20199;-65
2022/06/28 10:52:32;;;;;;;2.20;0.98;;;27.10;94.30;;;;;;5139140;27;20208;-69
2022/06/28 10:55:20;;;;;;;1.30;1.10;;;27.30;93.10;;;;;;5139188;27;20222;-66
2022/06/28 10:57:47;;;;;;;2.08;1.30;;;27.50;92.90;;;;;;5137348;27;20403;-63
2022/06/28 11:00:22;;;;;;;1.50;1.10;;;27.60;92.80;;;;;;5139111;27;20222;-63
2022/06/28 11:02:59;;;;;;;1.65;1.00;;;27.80;92.60;;;;;;5138286;27;20573;-63
2022/06/28 11:05:43;;;;;;;2.15;1.05;;;27.70;92.30;;;;;;5138646;27;20251;-65
2022/06/28 11:08:10;;;;;;;2.83;1.10;;;27.60;92.10;;;;;;5138565;27;20234;-63
2022/06/28 11:11:03;;;;;;;1.58;0.80;;;27.60;92.90;;;;;;5137837;27;20705;-65
2022/06/28 11:13:29;;;;;;;1.17;1.00;;;27.70;92.90;;;;;;5138321;27;20264;-64
2022/06/28 11:15:56;;;;;;;2.60;1.20;;;27.70;92.50;;;;;;5137925;27;20583;-64
2022/06/28 11:18:23;;;;;;;1.35;1.20;;;27.80;92.00;;;;;;5137030;27;20222;-64
2022/06/28 11:20:51;;;;;;;1.63;1.02;;;27.70;91.90;;;;;;5137193;27;20727;-64
2022/06/28 11:23:28;;;;;;;2.47;0.85;;;27.70;91.60;;;;;;5137742;27;20199;-64
2022/06/28 11:28:54;;;;;;;1.50;1.00;;;27.50;91.80;;;;;;5136991;27;20641;-67
2022/06/28 11:31:21;;;;;;;2.70;1.05;;;27.50;91.30;;;;;;5134028;27;20293;-61
2022/06/28 11:33:48;;;;;;;1.20;0.60;;;27.40;90.90;;;;;;5133941;27;20203;-60
2022/06/28 11:36:22;;;;;;;1.42;0.70;;;27.20;91.40;;;;;;5133916;27;20620;-60
2022/06/28 11:38:49;;;;;;;1.27;0.82;;;27.20;91.70;;;;;;5133779;27;20732;-61
2022/06/28 11:41:29;;;;;;;4.18;0.75;;;27.20;91.20;;;;;;5132376;27;20199;-61
2022/06/28 11:43:58;;;;;;;0.73;0.70;;;27.50;90.90;;;;;;5133820;27;20205;-60
2022/06/28 11:46:26;;;;;;;1.88;0.90;;;27.70;91.20;;;;;;5133747;27;20231;-60
2022/06/28 11:48:53;;;;;;;3.03;0.88;;;27.90;90.40;;;;;;5133785;27;20200;-60
2022/06/28 11:51:26;;;;;;;2.80;1.00;;;28.10;90.10;;;;;;5133511;27;20204;-60
2022/06/28 11:53:53;;;;;;;1.80;0.90;;;28.30;89.80;;;;;;5133266;27;20230;-61
2022/06/28 11:56:20;;;;;;;2.90;1.00;;;28.30;88.90;;;;;;5133869;27;20245;-61
2022/06/28 11:58:48;;;;;;;0.85;0.70;;;28.50;88.20;;;;;;5133563;27;20246;-59
2022/06/28 12:01:17;;;;;;;0.77;0.60;;;28.50;87.20;;;;;;5134058;27;20206;-59
2022/06/28 12:03:59;;;;;;;0.88;0.60;;;28.60;86.30;;;;;;5134229;27;20630;-59
2022/06/28 12:06:29;;;;;;;3.25;1.00;;;28.70;85.00;;;;;;5134036;27;20313;-59
2022/06/28 12:08:57;;;;;;;1.27;0.80;;;28.70;85.40;;;;;;5134568;27;20612;-59
2022/06/28 12:11:29;;;;;;;1.38;0.75;;;28.70;84.30;;;;;;5134307;27;20217;-59
2022/06/28 12:14:05;;;;;;;10.65;0.90;;;28.60;84.30;;;;;;5134008;27;20214;-59
2022/06/28 12:16:34;;;;;;;4.50;1.02;;;28.70;85.10;;;;;;5134144;27;20257;-59
2022/06/28 12:19:02;;;;;;;1.98;1.00;;;28.80;84.40;;;;;;5133821;27;20234;-59
2022/06/28 12:21:30;;;;;;;0.70;0.70;;;28.90;84.00;;;;;;5134191;27;20210;-59
2022/06/28 12:23:58;;;;;;;0.75;0.75;;;28.90;82.10;;;;;;5133766;27;20231;-59
2022/06/28 12:26:43;;;;;;;2.28;0.82;;;29.00;82.50;;;;;;5133788;27;20230;-59
2022/06/28 12:29:12;;;;;;;2.65;0.90;;;29.00;82.90;;;;;;5133918;27;20214;-59
2022/06/28 12:31:40;;;;;;;1.02;0.77;;;29.00;81.70;;;;;;5133726;27;20198;-59
2022/06/28 12:34:08;;;;;;;3.65;0.88;;;28.80;81.40;;;;;;5133751;27;20215;-59
2022/06/28 12:36:35;;;;;;;2.17;0.80;;;28.90;81.70;;;;;;5133596;27;20721;-59
2022/06/28 12:39:03;;;;;;;2.90;0.88;;;29.00;82.00;;;;;;5133472;27;20231;-59
2022/06/28 12:41:30;;;;;;;3.40;0.80;;;29.20;82.20;;;;;;5133712;27;20213;-59
2022/06/28 12:43:57;;;;;;;3.58;0.73;;;29.30;79.00;;;;;;5133376;27;20199;-59
2022/06/28 12:46:25;;;;;;;2.08;0.55;;;29.10;78.90;;;;;;5133415;27;20263;-59
2022/06/28 12:48:52;;;;;;;3.70;0.80;;;29.00;79.50;;;;;;5133594;27;20205;-59
2022/06/28 12:51:18;;;;;;;1.42;0.75;;;29.00;80.50;;;;;;5133622;27;20214;-59
2022/06/28 12:53:45;;;;;;;1.00;0.75;;;29.10;80.40;;;;;;5133213;27;20211;-59
2022/06/28 12:56:13;;;;;;;2.28;0.85;;;29.40;81.60;;;;;;5133423;27;20227;-60
2022/06/28 12:58:42;;;;;;;1.08;0.60;;;29.60;80.20;;;;;;5133245;27;20211;-59
2022/06/28 13:01:08;;;;;;;2.00;0.70;;;29.70;80.10;;;;;;5133611;27;20206;-59
2022/06/28 13:03:37;;;;;;;2.42;0.95;;;29.70;79.50;;;;;;5133241;27;20633;-58
2022/06/28 13:06:04;;;;;;;1.88;0.63;;;29.40;80.00;;;;;;5133309;27;20203;-58
2022/06/28 13:08:30;;;;;;;0.50;0.50;;;29.20;78.80;;;;;;5133318;27;20255;-59
2022/06/28 13:10:57;;;;;;;1.40;0.93;;;29.10;78.50;;;;;;5133367;27;20198;-58